Time;durP1;ratioP1;P1;durP2;ratioP2;P2;SDS_P1;SDS_P2;PMS_P1;PMS_P2;Temp;Humidity;BMP_temperature;BMP_pressure;BME280_temperature;BME280_humidity;BME280_pressure;Samples;Min_cycle;Max_cycle;Signal;HPM_P1;HPM_P2
2022/04/18 00:00:01;;;;;;;21.40;12.60;;;;;;;2.91;55.08;100690.96;130376;1268;108810;-80
2022/04/18 00:03:33;;;;;;;23.10;14.10;;;;;;;2.86;55.21;100694.75;130343;1268;110068;-80
2022/04/18 00:06:39;;;;;;;24.20;13.90;;;;;;;2.81;55.36;100692.83;130316;1268;108904;-80
2022/04/18 00:09:44;;;;;;;24.90;14.10;;;;;;;2.81;55.41;100692.98;130313;1268;108820;-78
2022/04/18 00:12:49;;;;;;;23.90;14.50;;;;;;;2.82;55.41;100689.42;130406;1268;108876;-78
2022/04/18 00:15:55;;;;;;;23.60;13.90;;;;;;;2.78;55.35;100689.99;130355;1268;108829;-78
2022/04/18 00:19:00;;;;;;;24.00;14.90;;;;;;;2.78;55.50;100689.64;130329;1269;108815;-78
2022/04/18 00:22:07;;;;;;;23.50;15.40;;;;;;;2.77;55.44;100686.88;130361;1269;108719;-80
2022/04/18 00:25:12;;;;;;;27.60;16.30;;;;;;;2.77;55.56;100683.91;130096;1268;351313;-79
2022/04/18 00:28:18;;;;;;;28.60;16.50;;;;;;;2.74;55.72;100683.02;130199;1268;108700;-79
2022/04/18 00:31:24;;;;;;;26.40;16.10;;;;;;;2.74;55.64;100682.84;130167;1268;108578;-81
2022/04/18 00:34:29;;;;;;;27.80;16.20;;;;;;;2.74;55.82;100680.90;130311;1268;107453;-79
2022/04/18 00:37:36;;;;;;;28.20;15.40;;;;;;;2.73;55.80;100676.54;130382;1268;107784;-78
2022/04/18 00:40:42;;;;;;;29.70;16.80;;;;;;;2.74;55.87;100671.58;130364;1268;108869;-79
2022/04/18 00:43:49;;;;;;;29.90;16.20;;;;;;;2.75;56.05;100674.69;130331;1268;108857;-80
2022/04/18 00:46:54;;;;;;;28.60;16.10;;;;;;;2.72;55.93;100665.92;130372;1268;108776;-79
2022/04/18 00:50:01;;;;;;;28.20;16.30;;;;;;;2.70;56.07;100660.05;130320;1268;108848;-78
2022/04/18 00:53:07;;;;;;;28.50;17.00;;;;;;;2.69;56.15;100659.39;130415;1268;107696;-79
2022/04/18 00:56:16;;;;;;;32.20;17.00;;;;;;;2.68;56.28;100660.71;130232;1269;108722;-78
2022/04/18 00:59:22;;;;;;;28.90;16.40;;;;;;;2.67;56.39;100661.27;130293;1268;107663;-79
2022/04/18 01:02:28;;;;;;;30.80;16.70;;;;;;;2.62;56.43;100652.44;130293;1268;107695;-80
2022/04/18 01:05:34;;;;;;;27.40;15.70;;;;;;;2.60;56.43;100650.84;130296;1268;108586;-78
2022/04/18 01:08:40;;;;;;;23.20;13.20;;;;;;;2.57;56.39;100646.09;130316;1268;108709;-79
2022/04/18 01:11:45;;;;;;;24.40;14.40;;;;;;;2.53;56.31;100643.69;130235;1268;108750;-79
2022/04/18 01:15:12;;;;;;;24.20;14.10;;;;;;;2.45;56.49;100644.67;130011;1271;108696;-79
2022/04/18 01:18:36;;;;;;;21.90;13.00;;;;;;;2.38;56.51;100640.04;130511;1268;108908;-79
2022/04/18 01:22:00;;;;;;;23.10;12.60;;;;;;;2.31;56.44;100642.52;130520;1268;108721;-79
2022/04/18 01:29:01;;;;;;;22.20;13.20;;;;;;;2.20;56.46;100639.66;130273;1268;107684;-79
2022/04/18 01:32:09;;;;;;;24.40;13.30;;;;;;;2.16;56.47;100638.84;130346;1268;108869;-79
2022/04/18 01:35:15;;;;;;;22.80;13.10;;;;;;;2.13;56.52;100636.58;130327;1268;108754;-78
2022/04/18 01:38:21;;;;;;;24.30;13.30;;;;;;;2.12;56.61;100632.02;130265;1268;108938;-80
2022/04/18 01:41:27;;;;;;;21.40;12.90;;;;;;;2.12;56.63;100631.73;130278;1268;108782;-79
2022/04/18 01:44:33;;;;;;;19.50;11.90;;;;;;;2.11;56.59;100628.94;130293;1268;108019;-79
2022/04/18 01:47:39;;;;;;;21.80;12.50;;;;;;;2.10;56.52;100625.88;130304;1268;108795;-80
2022/04/18 01:50:45;;;;;;;20.20;11.80;;;;;;;2.07;56.48;100620.58;130254;1268;108992;-79
2022/04/18 01:53:50;;;;;;;17.60;10.50;;;;;;;2.07;56.68;100617.46;130294;1268;108695;-79
2022/04/18 01:56:57;;;;;;;18.20;10.80;;;;;;;2.06;56.60;100615.95;130299;1268;108739;-79
2022/04/18 02:00:03;;;;;;;19.00;10.50;;;;;;;2.06;56.72;100614.50;130145;1268;108818;-80
2022/04/18 02:03:19;;;;;;;18.10;10.00;;;;;;;2.07;56.77;100613.57;130292;1268;108896;-79
2022/04/18 02:06:24;;;;;;;21.20;10.70;;;;;;;2.08;56.73;100613.17;130190;1268;108941;-80
2022/04/18 02:09:31;;;;;;;18.40;10.50;;;;;;;2.08;56.81;100608.09;130515;1268;108656;-79
2022/04/18 02:12:36;;;;;;;18.40;9.60;;;;;;;2.07;56.91;100610.43;130320;1268;108752;-78
2022/04/18 02:15:43;;;;;;;18.90;10.60;;;;;;;2.07;56.96;100605.33;130318;1268;108675;-79
2022/04/18 02:18:51;;;;;;;18.40;10.30;;;;;;;2.08;57.11;100608.09;130178;1268;108974;-78
2022/04/18 02:21:56;;;;;;;20.20;10.00;;;;;;;2.09;57.07;100606.64;130325;1268;108725;-79
2022/04/18 02:25:02;;;;;;;16.70;10.00;;;;;;;2.08;57.09;100598.96;130209;1268;108597;-80
2022/04/18 02:28:08;;;;;;;19.70;11.30;;;;;;;2.06;57.20;100601.38;130338;1268;109196;-80
2022/04/18 02:31:21;;;;;;;25.50;11.50;;;;;;;2.04;57.32;100601.45;130354;1268;108793;-81
2022/04/18 02:34:27;;;;;;;28.30;12.50;;;;;;;2.06;57.37;100598.91;130362;1268;108771;-79
2022/04/18 02:37:33;;;;;;;26.40;12.30;;;;;;;2.07;57.39;100598.27;130322;1268;108845;-78
2022/04/18 02:40:40;;;;;;;37.10;14.10;;;;;;;2.06;57.41;100597.51;130288;1268;107786;-80
2022/04/18 02:43:45;;;;;;;21.60;11.20;;;;;;;2.07;57.52;100596.57;130177;1268;108861;-79
2022/04/18 02:46:52;;;;;;;16.70;9.30;;;;;;;2.10;57.51;100597.81;130267;1268;108927;-79
2022/04/18 02:49:58;;;;;;;23.00;11.00;;;;;;;2.07;57.33;100596.53;130145;1268;108841;-81
2022/04/18 02:53:03;;;;;;;150.70;50.30;;;;;;;2.08;57.53;100591.72;130190;1268;107644;-77
2022/04/18 02:56:30;;;;;;;157.50;56.30;;;;;;;2.08;57.63;100591.55;130102;1271;109842;-79
2022/04/18 02:59:36;;;;;;;73.10;28.20;;;;;;;2.11;57.53;100591.41;130170;1268;108236;-79
2022/04/18 03:02:42;;;;;;;54.20;25.90;;;;;;;2.14;57.66;100593.86;130431;1268;108743;-78
2022/04/18 03:05:48;;;;;;;56.70;30.90;;;;;;;2.15;57.62;100591.52;130306;1268;109122;-81
2022/04/18 03:08:54;;;;;;;42.10;24.00;;;;;;;2.13;57.60;100588.11;130360;1268;108814;-80
2022/04/18 03:12:02;;;;;;;25.80;14.20;;;;;;;2.12;57.63;100589.42;130286;1268;108891;-81
2022/04/18 03:15:09;;;;;;;55.40;35.20;;;;;;;2.11;57.56;100585.98;130332;1268;108784;-79
2022/04/18 03:18:14;;;;;;;53.10;31.90;;;;;;;2.10;57.66;100584.48;130336;1268;107693;-79
2022/04/18 03:21:20;;;;;;;42.90;26.80;;;;;;;2.09;57.79;100588.00;130279;1268;108692;-78
2022/04/18 03:24:28;;;;;;;27.20;17.20;;;;;;;2.09;57.89;100584.30;130280;1268;109208;-79
2022/04/18 03:27:51;;;;;;;22.20;13.40;;;;;;;2.10;57.84;100580.77;130185;1268;108782;-79
2022/04/18 03:30:57;;;;;;;18.10;11.10;;;;;;;2.10;57.94;100575.47;130311;1268;106853;-80
2022/04/18 03:34:03;;;;;;;17.10;9.90;;;;;;;2.11;57.93;100573.33;130274;1268;108722;-80
2022/04/18 03:40:32;;;;;;;16.60;10.20;;;;;;;2.15;58.01;100570.45;130320;1268;108802;-80
2022/04/18 03:43:38;;;;;;;16.90;9.70;;;;;;;2.14;58.03;100573.64;130312;1268;109020;-77
2022/04/18 03:46:43;;;;;;;15.70;9.30;;;;;;;2.13;58.02;100575.84;130298;1268;108773;-80
2022/04/18 03:49:49;;;;;;;22.10;10.50;;;;;;;2.11;58.20;100575.23;130274;1268;107219;-78
2022/04/18 03:52:55;;;;;;;16.20;9.90;;;;;;;2.15;58.23;100579.38;130263;1268;107813;-78
2022/04/18 03:56:12;;;;;;;17.30;9.30;;;;;;;2.20;58.17;100574.55;130262;1268;108774;-79
2022/04/18 03:59:44;;;;;;;14.20;8.00;;;;;;;2.22;58.08;100565.48;130340;1268;108870;-79
2022/04/18 04:02:50;;;;;;;14.50;8.60;;;;;;;2.23;58.14;100563.11;130336;1268;108679;-79
2022/04/18 04:06:11;;;;;;;17.80;8.90;;;;;;;2.22;58.09;100558.48;130252;1268;108999;-78
2022/04/18 04:09:17;;;;;;;14.40;8.30;;;;;;;2.24;58.26;100558.31;130368;1267;109196;-81
2022/04/18 04:12:26;;;;;;;14.90;8.40;;;;;;;2.26;58.07;100558.05;130429;1268;108687;-78
2022/04/18 04:15:58;;;;;;;15.80;9.40;;;;;;;2.27;58.16;100567.64;130316;1267;109443;-79
2022/04/18 04:19:08;;;;;;;14.50;8.50;;;;;;;2.13;58.46;100573.41;130346;1268;108672;-79
2022/04/18 04:22:13;;;;;;;93.20;39.10;;;;;;;2.13;58.47;100574.46;130550;1266;108867;-78
2022/04/18 04:25:21;;;;;;;75.20;34.60;;;;;;;2.27;58.58;100570.79;130311;1268;108838;-80
2022/04/18 04:28:28;;;;;;;29.40;15.70;;;;;;;2.43;58.64;100574.02;130488;1268;109217;-80
2022/04/18 04:31:37;;;;;;;27.10;14.80;;;;;;;2.60;58.57;100573.35;130412;1268;108799;-80
2022/04/18 04:34:44;;;;;;;26.00;14.40;;;;;;;2.80;58.40;100571.09;130352;1268;108652;-81
2022/04/18 04:38:02;;;;;;;29.80;16.00;;;;;;;3.01;58.56;100569.23;130436;1268;108791;-78
2022/04/18 04:41:26;;;;;;;29.10;18.80;;;;;;;3.32;58.18;100572.73;130411;1268;108676;-78
2022/04/18 04:44:37;;;;;;;19.30;12.10;;;;;;;3.53;57.86;100572.06;130454;1268;108861;-77
2022/04/18 04:47:46;;;;;;;20.20;11.70;;;;;;;3.73;57.92;100570.06;130291;1267;108826;-78
2022/04/18 04:50:52;;;;;;;18.90;11.90;;;;;;;3.89;57.69;100572.87;130262;1268;108800;-78
2022/04/18 04:53:59;;;;;;;20.20;12.40;;;;;;;4.02;57.58;100578.84;130287;1268;108883;-79
2022/04/18 04:57:11;;;;;;;14.20;9.80;;;;;;;4.15;57.86;100579.98;130416;1268;108776;-79
2022/04/18 05:00:36;;;;;;;14.40;8.20;;;;;;;4.29;57.15;100584.09;130290;1268;107522;-78
2022/04/18 05:04:01;;;;;;;13.10;7.30;;;;;;;4.34;56.95;100583.58;130319;1268;108787;-78
2022/04/18 05:07:08;;;;;;;12.00;7.60;;;;;;;4.40;57.02;100586.88;130386;1268;108737;-79
2022/04/18 05:10:32;;;;;;;11.50;6.70;;;;;;;4.60;57.06;100581.26;130297;1268;107081;-79
2022/04/18 05:13:40;;;;;;;12.40;6.70;;;;;;;4.83;56.98;100584.11;130271;1267;108962;-78
2022/04/18 05:16:45;;;;;;;12.60;7.10;;;;;;;4.98;56.67;100581.39;130069;1268;107359;-78
2022/04/18 05:20:12;;;;;;;12.90;6.70;;;;;;;5.13;56.38;100580.36;130268;1268;108599;-78
2022/04/18 05:23:21;;;;;;;14.70;7.40;;;;;;;5.11;55.76;100584.17;130267;1268;108711;-79
2022/04/18 05:26:28;;;;;;;11.40;6.80;;;;;;;5.07;55.75;100578.52;130308;1268;108828;-79
2022/04/18 05:29:33;;;;;;;9.50;6.40;;;;;;;5.10;55.81;100575.95;130321;1268;108674;-79
2022/04/18 05:32:39;;;;;;;11.20;7.50;;;;;;;5.18;55.72;100578.42;130280;1268;108694;-79
2022/04/18 05:35:47;;;;;;;11.00;7.30;;;;;;;5.26;55.74;100580.64;130308;1268;108792;-79
2022/04/18 05:38:54;;;;;;;10.70;7.30;;;;;;;5.35;55.64;100580.35;130303;1268;109119;-80
2022/04/18 05:42:07;;;;;;;10.70;7.00;;;;;;;5.33;55.12;100577.67;130193;1268;108798;-78
2022/04/18 05:45:13;;;;;;;12.50;7.40;;;;;;;5.28;55.10;100575.16;130324;1268;108790;-79
2022/04/18 05:48:20;;;;;;;11.20;6.60;;;;;;;5.28;55.44;100575.93;130253;1268;108827;-79
2022/04/18 05:51:28;;;;;;;12.20;8.00;;;;;;;5.39;55.45;100576.36;130331;1268;108682;-79
2022/04/18 05:54:34;;;;;;;12.40;8.10;;;;;;;5.43;54.95;100577.27;130292;1268;108697;-79
2022/04/18 05:57:41;;;;;;;11.80;7.10;;;;;;;5.49;55.28;100573.36;130304;1268;108827;-79
2022/04/18 06:00:47;;;;;;;11.60;7.20;;;;;;;5.56;54.96;100573.37;130291;1268;108974;-80
2022/04/18 06:03:53;;;;;;;11.00;7.00;;;;;;;5.56;54.83;100570.34;130297;1268;107764;-80
2022/04/18 06:06:58;;;;;;;9.60;6.60;;;;;;;5.61;54.80;100568.27;130234;1268;108709;-80
2022/04/18 06:10:04;;;;;;;10.70;6.50;;;;;;;5.64;54.40;100569.55;130311;1268;108652;-80
2022/04/18 06:13:10;;;;;;;10.80;6.60;;;;;;;5.69;54.82;100570.64;130473;1268;108832;-80
2022/04/18 06:16:16;;;;;;;9.80;6.20;;;;;;;5.77;54.76;100562.98;130312;1268;107756;-78
2022/04/18 06:19:23;;;;;;;9.60;6.00;;;;;;;5.82;54.20;100564.39;130305;1268;108731;-78
2022/04/18 06:22:29;;;;;;;10.20;6.10;;;;;;;5.85;54.38;100560.59;130316;1268;108825;-79
2022/04/18 06:25:35;;;;;;;8.20;5.70;;;;;;;5.91;54.26;100562.29;130334;1268;108949;-80
2022/04/18 06:28:41;;;;;;;9.10;6.30;;;;;;;5.96;54.18;100555.76;130302;1268;108699;-80
2022/04/18 06:31:49;;;;;;;9.40;5.90;;;;;;;6.01;53.90;100555.56;130264;1268;108725;-80
2022/04/18 06:34:56;;;;;;;11.10;6.30;;;;;;;6.05;53.89;100557.77;130174;1268;108758;-79
2022/04/18 06:38:05;;;;;;;10.00;6.30;;;;;;;6.08;53.71;100555.36;130299;1268;108779;-79
2022/04/18 06:41:36;;;;;;;8.40;5.30;;;;;;;6.17;53.91;100555.77;130327;1268;108768;-79
2022/04/18 06:44:43;;;;;;;7.90;5.40;;;;;;;6.23;53.53;100555.29;130306;1268;108702;-79
2022/04/18 06:47:49;;;;;;;8.70;5.90;;;;;;;6.30;53.72;100551.23;130277;1268;108901;-79
2022/04/18 06:51:01;;;;;;;7.80;5.40;;;;;;;6.38;53.75;100552.97;130273;1268;108656;-80
2022/04/18 06:54:29;;;;;;;7.40;5.10;;;;;;;6.44;53.55;100553.48;130191;1270;108772;-80
2022/04/18 06:57:46;;;;;;;7.70;5.20;;;;;;;6.52;53.39;100556.27;130547;1268;108878;-79
2022/04/18 07:00:52;;;;;;;6.70;4.60;;;;;;;6.61;52.74;100551.65;130233;1268;108782;-79
2022/04/18 07:03:59;;;;;;;7.40;4.90;;;;;;;6.67;53.08;100549.41;130263;1268;108973;-80
2022/04/18 07:07:06;;;;;;;6.60;4.50;;;;;;;6.76;52.64;100546.99;130184;1267;108715;-78
2022/04/18 07:10:12;;;;;;;7.10;4.00;;;;;;;6.81;51.76;100549.39;130269;1268;108710;-79
2022/04/18 07:13:18;;;;;;;6.80;4.20;;;;;;;6.88;51.66;100550.63;130201;1268;108622;-80
2022/04/18 07:16:24;;;;;;;5.60;4.00;;;;;;;6.96;52.03;100545.19;130332;1268;107645;-79
2022/04/18 07:19:31;;;;;;;4.90;3.60;;;;;;;7.06;52.13;100539.46;130283;1268;108641;-80
2022/04/18 07:22:41;;;;;;;4.80;3.60;;;;;;;7.16;51.41;100538.83;130345;1268;108648;-80
2022/04/18 07:25:48;;;;;;;5.20;3.60;;;;;;;7.26;51.15;100537.15;130336;1268;108738;-79
2022/04/18 07:29:05;;;;;;;5.80;3.70;;;;;;;7.34;51.07;100538.61;130345;1268;108750;-80
2022/04/18 07:32:11;;;;;;;4.90;3.20;;;;;;;7.43;50.74;100534.70;130380;1267;108786;-80
2022/04/18 07:35:17;;;;;;;4.50;2.70;;;;;;;7.50;49.60;100536.21;130351;1268;107677;-80
2022/04/18 07:38:52;;;;;;;4.30;3.00;;;;;;;7.58;49.71;100531.89;130399;1267;109881;-81
2022/04/18 07:42:04;;;;;;;6.00;3.20;;;;;;;7.65;49.31;100531.45;130271;1268;108672;-80
2022/04/18 07:45:11;;;;;;;3.90;2.40;;;;;;;7.73;49.75;100529.23;130263;1268;108823;-80
2022/04/18 07:48:17;;;;;;;3.90;2.20;;;;;;;7.82;49.16;100530.75;130368;1267;109081;-80
2022/04/18 07:51:34;;;;;;;4.00;2.00;;;;;;;7.89;48.24;100528.96;130413;1265;109154;-80
2022/04/18 07:54:41;;;;;;;3.90;2.20;;;;;;;7.93;47.09;100537.08;130435;1268;108884;-79
2022/04/18 07:57:50;;;;;;;3.60;2.40;;;;;;;7.98;47.91;100530.45;130360;1266;108699;-78
2022/04/18 08:00:56;;;;;;;4.80;3.10;;;;;;;8.09;47.98;100532.07;130368;1268;107685;-79
2022/04/18 08:04:02;;;;;;;3.90;2.10;;;;;;;8.15;47.17;100531.83;130370;1268;108648;-79
2022/04/18 08:07:08;;;;;;;3.40;2.10;;;;;;;8.21;47.49;100528.20;130362;1268;108626;-78
2022/04/18 08:10:14;;;;;;;2.80;2.00;;;;;;;8.28;46.99;100526.50;130332;1268;109032;-80
2022/04/18 08:13:20;;;;;;;3.60;1.90;;;;;;;8.38;46.33;100530.99;130415;1268;108778;-78
2022/04/18 08:16:57;;;;;;;3.50;2.40;;;;;;;8.47;46.65;100530.95;130461;1268;107505;-79
2022/04/18 08:20:29;;;;;;;4.40;2.30;;;;;;;8.56;46.25;100526.74;130232;1268;108857;-78
2022/04/18 08:23:35;;;;;;;3.00;2.00;;;;;;;8.60;46.15;100528.23;130312;1268;108622;-78
2022/04/18 08:27:07;;;;;;;3.50;1.70;;;;;;;8.70;44.79;100536.61;130282;1268;109028;-79
2022/04/18 08:30:21;;;;;;;3.20;1.70;;;;;;;8.84;43.82;100530.95;130365;1268;107696;-79
2022/04/18 08:33:44;;;;;;;4.30;2.00;;;;;;;8.98;45.22;100524.52;130275;1268;108728;-80
2022/04/18 08:36:50;;;;;;;2.40;1.90;;;;;;;9.16;44.81;100521.88;130353;1268;108753;-79
2022/04/18 08:39:56;;;;;;;3.70;1.80;;;;;;;9.32;44.62;100529.83;130369;1267;109002;-79
2022/04/18 08:43:04;;;;;;;2.90;1.50;;;;;;;9.33;43.57;100529.02;130377;1268;107682;-79
2022/04/18 08:46:10;;;;;;;2.70;1.50;;;;;;;9.33;42.44;100530.86;130374;1268;107648;-79
2022/04/18 08:52:44;;;;;;;2.80;1.80;;;;;;;9.64;43.01;100513.08;130363;1268;107653;-78
2022/04/18 08:56:06;;;;;;;3.60;2.40;;;;;;;9.88;43.40;100509.96;130269;1268;108845;-79
2022/04/18 08:59:13;;;;;;;3.20;2.00;;;;;;;10.09;43.49;100505.89;130398;1268;108784;-79
2022/04/18 09:02:20;;;;;;;3.00;1.80;;;;;;;10.21;41.20;100507.77;130248;1268;109914;-77
2022/04/18 09:05:49;;;;;;;2.40;1.70;;;;;;;10.28;42.85;100496.14;130323;1267;107680;-79
2022/04/18 09:08:59;;;;;;;3.30;1.60;;;;;;;10.40;42.14;100493.09;130264;1268;108718;-79
2022/04/18 09:12:20;;;;;;;2.40;1.50;;;;;;;10.39;41.99;100491.02;130319;1268;108765;-79
2022/04/18 09:15:39;;;;;;;;;;;;;;;10.24;41.44;100483.52;130337;1268;108787;-79
2022/04/18 09:18:46;;;;;;;2.70;1.60;;;;;;;10.16;41.66;100481.83;130285;1268;108684;-78
2022/04/18 09:22:05;;;;;;;2.70;1.70;;;;;;;10.14;42.17;100478.48;130303;1268;108919;-79
2022/04/18 09:25:22;;;;;;;2.70;2.00;;;;;;;10.14;40.85;100477.13;130247;1268;109076;-78
2022/04/18 09:28:31;;;;;;;5.90;1.60;;;;;;;10.10;41.20;100477.20;130284;1268;108796;-78
2022/04/18 09:31:42;;;;;;;3.50;1.40;;;;;;;10.05;41.00;100471.40;130422;1268;108633;-78
2022/04/18 09:35:02;;;;;;;1.70;1.20;;;;;;;9.97;41.37;100466.19;130333;1268;108763;-78
2022/04/18 09:38:09;;;;;;;2.10;1.30;;;;;;;9.99;41.28;100466.55;130326;1268;108866;-79
2022/04/18 09:41:32;;;;;;;4.40;3.60;;;;;;;9.93;39.22;100464.62;130136;1270;108754;-79
2022/04/18 09:44:54;;;;;;;10.40;5.40;;;;;;;9.78;38.64;100461.34;130328;1268;108792;-78
2022/04/18 09:48:02;;;;;;;3.40;2.10;;;;;;;9.63;39.51;100450.67;130227;1268;108944;-78
2022/04/18 09:51:12;;;;;;;2.60;1.60;;;;;;;9.67;40.77;100441.81;130299;1268;108776;-78
2022/04/18 09:54:23;;;;;;;2.10;1.30;;;;;;;9.82;39.50;100437.70;130238;1268;108660;-78
2022/04/18 09:57:30;;;;;;;1.60;1.40;;;;;;;9.90;39.58;100435.87;130358;1268;108706;-78
2022/04/18 10:00:35;;;;;;;1.70;1.30;;;;;;;9.93;40.50;100431.59;130321;1268;109012;-78
2022/04/18 10:03:43;;;;;;;2.70;2.00;;;;;;;10.00;39.90;100424.46;130343;1268;108874;-78
2022/04/18 10:06:50;;;;;;;2.90;1.80;;;;;;;10.01;39.03;100425.04;130327;1268;108809;-79
2022/04/18 10:09:58;;;;;;;12.80;5.10;;;;;;;10.07;38.96;100423.77;130468;1267;108883;-78
2022/04/18 10:13:05;;;;;;;3.80;2.00;;;;;;;10.08;38.80;100409.34;130428;1267;108703;-78
2022/04/18 10:16:10;;;;;;;3.30;1.60;;;;;;;10.14;39.60;100411.21;130386;1267;108956;-78
2022/04/18 10:19:29;;;;;;;2.10;1.60;;;;;;;10.19;39.16;100411.11;130404;1267;108695;-78
2022/04/18 10:23:12;;;;;;;4.00;2.80;;;;;;;10.17;37.13;100409.21;130431;1267;107733;-78
2022/04/18 10:26:36;;;;;;;1.90;1.30;;;;;;;9.99;37.42;100406.73;130391;1267;108718;-78
2022/04/18 10:29:47;;;;;;;1.90;1.20;;;;;;;9.93;38.20;100401.12;130428;1267;108658;-78
2022/04/18 10:32:54;;;;;;;3.00;1.80;;;;;;;9.99;36.98;100397.60;130388;1267;109004;-78
2022/04/18 10:36:07;;;;;;;3.30;1.70;;;;;;;10.00;37.53;100394.92;130453;1268;107672;-78
2022/04/18 10:39:14;;;;;;;2.40;1.20;;;;;;;10.01;36.44;100392.00;130455;1267;108822;-77
2022/04/18 10:42:24;;;;;;;1.50;1.30;;;;;;;10.07;37.80;100391.67;130454;1267;108882;-77
2022/04/18 10:45:30;;;;;;;3.10;1.40;;;;;;;10.13;38.09;100389.05;130482;1267;108815;-78
2022/04/18 10:48:40;;;;;;;2.50;1.10;;;;;;;10.23;37.41;100382.08;130426;1267;108804;-77
2022/04/18 10:51:47;;;;;;;3.50;1.40;;;;;;;10.31;37.83;100373.95;130361;1267;108841;-79
2022/04/18 10:55:02;;;;;;;1.40;1.00;;;;;;;10.40;37.77;100371.92;130477;1268;108813;-77
2022/04/18 10:58:18;;;;;;;2.60;1.80;;;;;;;10.48;37.40;100360.34;130435;1267;108640;-78
2022/04/18 11:01:38;;;;;;;3.00;1.30;;;;;;;10.55;37.89;100359.25;130428;1267;108974;-77
2022/04/18 11:04:47;;;;;;;2.10;1.30;;;;;;;10.61;35.49;100358.38;130438;1267;108992;-77
2022/04/18 11:07:55;;;;;;;2.30;1.00;;;;;;;10.57;35.71;100361.40;130394;1267;108737;-76
2022/04/18 11:11:06;;;;;;;1.80;1.00;;;;;;;10.64;36.31;100351.73;130266;1268;108932;-77
2022/04/18 11:14:21;;;;;;;1.90;1.20;;;;;;;10.66;35.41;100350.09;130462;1268;108723;-77
2022/04/18 11:17:34;;;;;;;1.60;0.90;;;;;;;10.65;35.47;100356.44;130531;1267;108649;-77
2022/04/18 11:20:40;;;;;;;1.80;1.20;;;;;;;10.66;35.37;100352.02;130463;1267;108781;-77
2022/04/18 11:23:46;;;;;;;8.80;7.20;;;;;;;10.70;35.21;100345.89;130448;1267;108309;-76
2022/04/18 11:26:53;;;;;;;3.10;2.00;;;;;;;10.70;34.32;100343.85;130399;1267;108722;-78
2022/04/18 11:30:01;;;;;;;2.40;1.30;;;;;;;10.78;34.93;100344.58;130423;1268;108745;-78
2022/04/18 11:33:07;;;;;;;6.90;5.40;;;;;;;10.86;35.54;100336.30;130432;1268;108700;-78
2022/04/18 11:36:13;;;;;;;6.30;3.30;;;;;;;10.89;34.23;100340.66;130409;1268;108657;-77
2022/04/18 11:39:19;;;;;;;4.60;2.40;;;;;;;10.83;34.78;100338.27;130434;1267;108741;-78
2022/04/18 11:42:26;;;;;;;5.60;1.60;;;;;;;10.90;32.90;100332.42;130420;1268;108757;-76
2022/04/18 11:45:31;;;;;;;2.30;1.10;;;;;;;10.93;33.24;100326.19;130385;1268;108934;-76
2022/04/18 11:48:37;;;;;;;2.90;1.40;;;;;;;11.01;34.76;100322.94;130442;1268;108744;-77
2022/04/18 11:51:44;;;;;;;1.50;1.00;;;;;;;10.98;35.00;100307.16;130412;1268;108702;-77
2022/04/18 11:55:01;;;;;;;2.00;1.40;;;;;;;11.02;34.05;100309.17;130410;1268;108934;-77
2022/04/18 11:58:08;;;;;;;2.30;1.50;;;;;;;10.97;32.71;100307.23;130467;1267;108703;-77
2022/04/18 12:08:02;;;;;;;2.80;1.30;;;;;;;11.17;34.38;100281.89;130431;1268;108636;-77
2022/04/18 12:11:07;;;;;;;3.10;1.80;;;;;;;11.15;33.30;100282.33;130470;1267;109093;-78
2022/04/18 12:14:14;;;;;;;2.00;1.40;;;;;;;11.05;33.44;100279.28;130443;1268;108674;-78
2022/04/18 12:17:20;;;;;;;2.50;1.10;;;;;;;10.98;32.70;100284.03;130418;1267;108629;-77
2022/04/18 12:20:28;;;;;;;12.40;7.40;;;;;;;10.88;33.19;100277.95;130439;1268;108800;-77
2022/04/18 12:23:33;;;;;;;2.40;1.50;;;;;;;10.77;34.27;100262.66;130433;1268;108701;-78
2022/04/18 12:26:40;;;;;;;3.10;1.90;;;;;;;10.78;34.98;100255.23;130264;1268;303227;-78
2022/04/18 12:29:46;;;;;;;3.40;2.20;;;;;;;10.84;34.80;100250.80;130442;1267;108806;-78
2022/04/18 12:32:54;;;;;;;2.80;1.00;;;;;;;10.84;33.40;100251.80;130441;1267;108645;-78
2022/04/18 12:36:00;;;;;;;1.70;1.10;;;;;;;10.78;33.35;100251.49;130469;1268;108835;-78
2022/04/18 12:39:06;;;;;;;2.90;1.70;;;;;;;10.79;33.01;100254.48;130466;1267;108753;-78
2022/04/18 12:42:13;;;;;;;3.00;1.60;;;;;;;10.74;33.20;100250.14;130427;1267;108710;-78
2022/04/18 12:45:19;;;;;;;2.40;1.50;;;;;;;10.70;31.79;100243.25;130484;1268;108880;-78
2022/04/18 12:48:26;;;;;;;2.60;1.30;;;;;;;10.63;33.03;100239.58;130474;1267;108682;-78
2022/04/18 12:51:37;;;;;;;3.10;1.90;;;;;;;10.68;33.92;100227.61;130479;1267;108318;-78
2022/04/18 12:54:47;;;;;;;1.70;1.10;;;;;;;10.76;32.67;100228.42;130528;1267;107731;-78
2022/04/18 12:57:52;;;;;;;2.40;1.30;;;;;;;10.78;32.84;100220.95;130479;1268;109084;-77
2022/04/18 13:00:58;;;;;;;1.70;1.20;;;;;;;10.73;31.44;100211.54;130498;1267;108498;-78
2022/04/18 13:04:05;;;;;;;2.40;1.10;;;;;;;10.71;32.48;100207.45;130498;1267;107705;-77
2022/04/18 13:07:12;;;;;;;2.40;1.10;;;;;;;10.71;32.82;100196.05;130441;1267;108807;-77
2022/04/18 13:10:26;;;;;;;2.90;1.20;;;;;;;10.74;31.87;100195.94;130454;1268;108842;-77
2022/04/18 13:13:32;;;;;;;1.30;1.10;;;;;;;10.70;31.96;100192.77;130501;1267;108704;-77
2022/04/18 13:16:39;;;;;;;1.90;1.10;;;;;;;10.74;32.43;100201.91;130475;1267;108906;-77
2022/04/18 13:19:45;;;;;;;2.30;1.50;;;;;;;10.86;32.78;100194.46;130501;1268;108930;-77
2022/04/18 13:22:50;;;;;;;1.90;1.10;;;;;;;10.97;32.69;100188.75;130502;1267;107774;-76
2022/04/18 13:25:56;;;;;;;1.80;1.10;;;;;;;10.92;33.13;100180.17;130497;1267;106758;-76
2022/04/18 13:29:01;;;;;;;2.80;1.60;;;;;;;10.76;32.79;100176.64;130415;1268;109057;-77
2022/04/18 13:32:08;;;;;;;3.10;1.10;;;;;;;10.68;31.19;100179.08;130470;1267;108722;-77
2022/04/18 13:35:13;;;;;;;2.10;1.20;;;;;;;10.70;32.63;100167.81;130433;1268;108664;-78
2022/04/18 13:38:20;;;;;;;1.40;0.90;;;;;;;10.77;31.76;100163.23;130523;1268;109538;-77
2022/04/18 13:41:25;;;;;;;1.90;1.20;;;;;;;10.82;32.57;100161.23;130510;1268;108889;-77
2022/04/18 13:44:32;;;;;;;2.10;1.20;;;;;;;10.84;31.58;100145.89;130482;1268;108770;-77
2022/04/18 13:47:39;;;;;;;3.30;1.20;;;;;;;10.81;31.06;100147.08;130467;1268;108747;-77
2022/04/18 13:50:45;;;;;;;1.50;0.90;;;;;;;10.85;31.10;100143.13;130535;1266;108772;-77
2022/04/18 13:53:52;;;;;;;1.60;1.00;;;;;;;10.89;31.03;100143.26;130456;1267;108945;-77
2022/04/18 13:56:58;;;;;;;2.00;1.40;;;;;;;10.94;31.35;100133.88;130515;1267;109044;-77
2022/04/18 14:00:04;;;;;;;1.70;1.10;;;;;;;11.01;32.02;100122.33;130399;1267;108526;-77
2022/04/18 14:03:17;;;;;;;4.00;1.60;;;;;;;11.14;31.85;100121.15;130468;1268;108715;-77
2022/04/18 14:06:26;;;;;;;3.60;1.90;;;;;;;11.18;31.60;100121.54;130446;1267;108531;-77
2022/04/18 14:09:31;;;;;;;2.10;1.40;;;;;;;11.21;31.27;100114.68;130484;1268;108693;-77
2022/04/18 14:12:37;;;;;;;2.30;1.60;;;;;;;11.21;31.68;100117.39;130475;1268;109268;-77
2022/04/18 14:22:29;;;;;;;2.40;1.40;;;;;;;11.51;31.15;100091.83;130652;1268;108971;-77
2022/04/18 14:25:36;;;;;;;2.20;1.30;;;;;;;11.49;30.60;100095.20;130544;1267;107605;-80
2022/04/18 14:28:41;;;;;;;2.00;1.20;;;;;;;11.52;31.25;100094.52;130491;1267;108953;-77
2022/04/18 14:31:47;;;;;;;2.00;1.10;;;;;;;11.58;30.95;100091.17;130447;1268;108937;-79
2022/04/18 14:34:52;;;;;;;2.20;0.90;;;;;;;11.58;30.37;100092.80;130468;1267;108810;-77
2022/04/18 14:37:58;;;;;;;2.70;1.10;;;;;;;11.54;30.95;100084.38;130598;1267;108695;-78
2022/04/18 14:41:03;;;;;;;4.70;1.50;;;;;;;11.44;30.39;100075.23;130497;1267;108980;-79
2022/04/18 14:44:09;;;;;;;1.80;1.10;;;;;;;11.30;30.04;100081.69;130621;1267;108876;-74